Time;durP1;ratioP1;P1;durP2;ratioP2;P2;SDS_P1;SDS_P2;PMS_P1;PMS_P2;Temp;Humidity;BMP_temperature;BMP_pressure;BME280_temperature;BME280_humidity;BME280_pressure;Samples;Min_cycle;Max_cycle;Signal;HPM_P1;HPM_P2
2021/11/07 00:02:19;;;;;;;13.13;11.10;;;13.00;81.30;;;;;;4934130;28;96120;-91
2021/11/07 00:04:48;;;;;;;12.27;11.13;;;13.00;81.40;;;;;;4951926;28;94350;-91
2021/11/07 00:12:16;;;;;;;11.75;10.65;;;13.00;81.40;;;;;;4957135;28;95911;-92
2021/11/07 00:14:47;;;;;;;12.05;10.90;;;13.10;81.60;;;;;;4969032;28;95747;-92
2021/11/07 00:17:18;;;;;;;11.13;10.00;;;13.10;81.40;;;;;;4969337;28;92514;-91
2021/11/07 00:19:49;;;;;;;10.68;9.38;;;13.10;81.40;;;;;;4948082;28;92467;-92
2021/11/07 00:27:36;;;;;;;11.40;9.23;;;13.20;81.20;;;;;;4978682;28;92458;-91
2021/11/07 00:37:46;;;;;;;11.85;9.50;;;13.20;81.60;;;;;;4956923;28;92533;-91
2021/11/07 00:48:16;;;;;;;12.30;9.80;;;13.40;81.20;;;;;;4937160;28;92597;-91
2021/11/07 00:51:16;;;;;;;9.90;8.90;;;13.40;81.30;;;;;;4937657;28;92109;-92
2021/11/07 00:56:48;;;;;;;13.45;9.52;;;13.40;81.50;;;;;;4952859;28;94873;-91
2021/11/07 00:59:30;;;;;;;10.23;8.70;;;13.40;81.40;;;;;;4935857;28;94904;-91
2021/11/07 01:02:41;;;;;;;8.93;7.85;;;13.40;81.20;;;;;;4909227;28;92553;-91
2021/11/07 01:05:22;;;;;;;11.60;7.55;;;13.40;81.30;;;;;;4934582;28;92816;-92
2021/11/07 01:07:49;;;;;;;8.10;7.18;;;13.40;81.40;;;;;;4953114;28;95868;-92
2021/11/07 01:10:17;;;;;;;9.48;7.43;;;13.30;81.50;;;;;;4937422;28;92821;-91
2021/11/07 01:12:44;;;;;;;9.13;7.85;;;13.40;81.50;;;;;;4953685;28;92488;-91
2021/11/07 01:15:11;;;;;;;9.25;7.38;;;13.40;81.70;;;;;;4936393;28;95658;-91
2021/11/07 01:17:40;;;;;;;8.18;6.70;;;13.40;81.60;;;;;;4953599;28;95534;-91
2021/11/07 01:20:10;;;;;;;8.43;6.57;;;13.40;81.60;;;;;;4955299;28;92493;-91
2021/11/07 01:25:08;;;;;;;6.63;5.57;;;13.40;81.50;;;;;;4939268;28;98638;-91
2021/11/07 01:27:45;;;;;;;8.25;4.82;;;13.50;81.40;;;;;;4939695;28;98158;-92
2021/11/07 01:30:22;;;;;;;8.95;5.72;;;13.50;81.30;;;;;;4972594;28;92577;-91
2021/11/07 01:32:59;;;;;;;7.75;5.00;;;13.50;81.20;;;;;;4972685;28;92434;-92
2021/11/07 01:35:36;;;;;;;8.93;5.63;;;13.50;81.00;;;;;;4958544;28;93245;-92
2021/11/07 01:40:35;;;;;;;9.90;6.32;;;13.60;81.00;;;;;;4956895;28;92785;-91
2021/11/07 01:43:02;;;;;;;6.95;5.65;;;13.60;81.40;;;;;;4971559;28;92355;-91
2021/11/07 01:45:35;;;;;;;8.20;6.20;;;13.60;80.90;;;;;;4989227;28;96312;-91
2021/11/07 01:48:14;;;;;;;7.75;5.47;;;13.60;80.80;;;;;;4988458;28;95775;-91
2021/11/07 01:50:51;;;;;;;7.63;4.57;;;13.60;80.70;;;;;;4955219;28;94857;-91
2021/11/07 01:53:28;;;;;;;8.98;4.78;;;13.60;80.70;;;;;;4972505;28;92645;-92
2021/11/07 01:55:58;;;;;;;9.25;4.80;;;13.60;80.90;;;;;;4969962;28;94523;-91
2021/11/07 01:58:26;;;;;;;7.45;4.18;;;13.70;80.80;;;;;;4936346;28;95945;-91
2021/11/07 02:00:54;;;;;;;10.00;4.40;;;13.60;80.90;;;;;;4935837;28;99454;-91
2021/11/07 02:03:22;;;;;;;8.25;4.15;;;13.60;80.80;;;;;;4920710;28;92874;-92
2021/11/07 02:05:50;;;;;;;7.88;4.50;;;13.60;80.90;;;;;;4919610;28;95761;-92
2021/11/07 02:08:21;;;;;;;10.13;4.18;;;13.60;80.80;;;;;;4937261;28;95842;-92
2021/11/07 02:10:51;;;;;;;8.65;4.00;;;13.70;80.90;;;;;;4939556;28;92542;-92
2021/11/07 02:13:19;;;;;;;9.25;4.00;;;13.60;80.80;;;;;;4971798;28;92478;-92
2021/11/07 02:15:46;;;;;;;14.18;4.38;;;13.60;80.90;;;;;;4937508;28;103782;-92
2021/11/07 02:18:16;;;;;;;13.75;4.45;;;13.60;80.90;;;;;;4971666;28;98029;-92
2021/11/07 02:20:45;;;;;;;16.50;4.95;;;13.70;81.30;;;;;;4939565;28;92426;-91
2021/11/07 02:23:18;;;;;;;12.65;4.50;;;13.70;81.00;;;;;;4939129;28;92606;-91
2021/11/07 02:25:48;;;;;;;21.40;5.93;;;13.70;80.90;;;;;;4957083;28;93315;-92
2021/11/07 02:28:34;;;;;;;19.05;5.90;;;13.70;80.80;;;;;;4955041;28;94837;-92
2021/11/07 02:31:05;;;;;;;14.02;4.38;;;13.70;81.00;;;;;;4939069;28;92405;-92
2021/11/07 02:33:33;;;;;;;14.02;4.65;;;13.70;81.00;;;;;;4956881;28;91855;-92
2021/11/07 02:36:09;;;;;;;12.93;5.05;;;13.70;80.90;;;;;;4955166;28;96014;-91
2021/11/07 02:38:38;;;;;;;12.68;4.80;;;13.70;81.10;;;;;;4951009;28;95660;-92
2021/11/07 02:41:07;;;;;;;16.60;4.68;;;13.60;80.90;;;;;;4963293;28;105044;-92
2021/11/07 02:43:42;;;;;;;16.58;4.70;;;13.60;80.90;;;;;;4953876;28;93076;-91
2021/11/07 02:46:15;;;;;;;16.05;5.32;;;13.50;80.80;;;;;;4954524;28;93386;-91
2021/11/07 02:48:48;;;;;;;15.85;5.03;;;13.40;80.60;;;;;;4954646;28;95692;-91
2021/11/07 02:51:16;;;;;;;10.27;4.57;;;13.50;80.50;;;;;;4955393;28;92992;-91
2021/11/07 02:53:43;;;;;;;17.23;4.93;;;13.40;80.40;;;;;;4938912;28;93869;-91
2021/11/07 02:56:11;;;;;;;12.95;4.35;;;13.40;80.50;;;;;;4938389;28;95570;-91
2021/11/07 02:58:40;;;;;;;13.77;5.68;;;13.40;80.40;;;;;;4938561;28;95413;-92
2021/11/07 03:01:07;;;;;;;21.80;6.05;;;13.40;80.40;;;;;;4971077;28;92829;-91
2021/11/07 03:03:35;;;;;;;19.17;5.07;;;13.40;80.20;;;;;;4939562;28;92486;-91
2021/11/07 03:06:02;;;;;;;14.55;5.32;;;13.30;80.20;;;;;;4920875;28;97909;-92
2021/11/07 03:08:30;;;;;;;20.73;5.32;;;13.30;80.20;;;;;;4954268;28;107570;-92
2021/11/07 03:10:59;;;;;;;16.35;5.00;;;13.30;80.30;;;;;;4955182;28;92676;-92
2021/11/07 03:13:27;;;;;;;19.08;6.15;;;13.20;80.40;;;;;;4954431;28;92527;-92
2021/11/07 03:15:55;;;;;;;19.58;5.68;;;13.10;80.60;;;;;;4954450;28;93523;-92
2021/11/07 03:18:22;;;;;;;16.40;4.82;;;13.10;80.80;;;;;;4950838;28;92695;-92
2021/11/07 03:20:50;;;;;;;16.13;5.43;;;13.10;81.00;;;;;;4951604;28;92523;-91
2021/11/07 03:23:20;;;;;;;15.70;4.70;;;13.10;80.90;;;;;;4934846;28;91800;-92
2021/11/07 03:25:57;;;;;;;16.88;4.30;;;13.10;81.00;;;;;;4950487;28;96429;-92
2021/11/07 03:28:24;;;;;;;14.55;4.95;;;13.10;80.70;;;;;;4935108;28;93145;-91
2021/11/07 03:31:11;;;;;;;23.83;5.35;;;13.10;80.80;;;;;;4932916;28;106106;-92
2021/11/07 03:33:47;;;;;;;22.08;5.00;;;13.10;80.00;;;;;;4934687;28;92778;-92
2021/11/07 03:36:19;;;;;;;19.17;4.72;;;13.10;79.40;;;;;;4934650;28;96232;-91
2021/11/07 03:38:48;;;;;;;25.80;4.82;;;13.10;79.10;;;;;;4950898;28;95062;-91
2021/11/07 03:41:16;;;;;;;19.85;4.15;;;13.20;78.60;;;;;;4950073;28;94358;-91
2021/11/07 03:43:43;;;;;;;13.13;3.88;;;13.10;77.70;;;;;;4950439;28;93031;-92
2021/11/07 03:46:11;;;;;;;20.40;4.60;;;13.10;77.50;;;;;;4934386;28;95969;-92
2021/11/07 03:48:38;;;;;;;22.75;5.43;;;13.10;77.10;;;;;;4951713;28;93298;-92
2021/11/07 03:51:06;;;;;;;22.08;5.15;;;12.90;76.80;;;;;;4935508;28;92975;-92
2021/11/07 03:53:33;;;;;;;21.15;4.75;;;12.90;76.80;;;;;;4907110;28;92531;-92
2021/11/07 03:56:01;;;;;;;23.58;5.38;;;12.80;76.70;;;;;;4920640;28;98251;-92
2021/11/07 03:58:28;;;;;;;18.10;5.57;;;12.80;76.80;;;;;;4938410;28;98198;-92
2021/11/07 04:00:55;;;;;;;18.27;4.70;;;12.70;77.10;;;;;;4925791;28;93115;-91
2021/11/07 04:03:22;;;;;;;17.67;4.97;;;12.70;77.20;;;;;;4957279;28;92862;-92
2021/11/07 04:05:50;;;;;;;15.63;4.13;;;12.60;77.00;;;;;;4940651;28;95908;-92
2021/11/07 04:08:17;;;;;;;17.83;4.70;;;12.60;77.30;;;;;;4921094;28;93028;-92
2021/11/07 04:10:44;;;;;;;32.35;6.15;;;12.60;77.00;;;;;;4906446;28;92942;-91
2021/11/07 04:13:11;;;;;;;17.88;4.38;;;12.60;77.00;;;;;;4922138;28;91809;-91
2021/11/07 04:15:38;;;;;;;23.27;4.50;;;12.60;77.20;;;;;;4921496;28;101644;-92
2021/11/07 04:18:06;;;;;;;15.23;4.15;;;12.50;77.10;;;;;;4937885;28;93542;-92
2021/11/07 04:20:33;;;;;;;20.80;4.50;;;12.50;77.20;;;;;;4921853;28;95041;-92
2021/11/07 04:23:00;;;;;;;25.48;5.10;;;12.50;77.10;;;;;;4937551;28;92789;-92
2021/11/07 04:25:27;;;;;;;23.00;4.25;;;12.50;76.90;;;;;;4938114;28;93654;-92
2021/11/07 04:27:54;;;;;;;25.58;5.57;;;12.50;76.70;;;;;;4938313;28;93294;-92
2021/11/07 04:30:22;;;;;;;20.17;4.65;;;12.50;76.70;;;;;;4937491;28;92442;-92
2021/11/07 04:32:49;;;;;;;23.13;5.05;;;12.50;76.70;;;;;;4941807;28;92495;-93
2021/11/07 04:35:16;;;;;;;23.15;4.35;;;12.50;76.40;;;;;;4958161;28;93370;-92
2021/11/07 04:37:44;;;;;;;13.63;3.33;;;12.50;76.10;;;;;;4958669;28;93532;-92
2021/11/07 04:40:14;;;;;;;16.38;3.40;;;12.60;76.00;;;;;;4924535;28;92562;-92
2021/11/07 04:42:43;;;;;;;16.25;4.00;;;12.50;75.80;;;;;;4973675;28;92501;-92
2021/11/07 04:45:10;;;;;;;19.40;4.28;;;12.60;75.80;;;;;;4934744;28;97837;-92
2021/11/07 04:47:38;;;;;;;16.08;3.58;;;12.60;75.60;;;;;;4954056;28;95447;-92
2021/11/07 04:50:08;;;;;;;20.20;3.78;;;12.60;75.90;;;;;;4952928;28;93005;-92
2021/11/07 04:52:35;;;;;;;17.92;3.65;;;12.60;75.30;;;;;;4955280;28;92502;-92
2021/11/07 04:55:02;;;;;;;20.83;5.13;;;12.60;75.20;;;;;;4924418;28;95805;-92
2021/11/07 04:57:29;;;;;;;24.80;4.78;;;12.60;75.00;;;;;;4956681;28;95564;-92
2021/11/07 04:59:58;;;;;;;21.52;3.97;;;12.50;75.00;;;;;;4956433;28;93017;-92
2021/11/07 05:02:25;;;;;;;19.85;3.72;;;12.50;74.90;;;;;;4957626;28;91974;-91
2021/11/07 05:04:54;;;;;;;18.40;4.03;;;12.40;74.90;;;;;;4940012;28;93523;-91
2021/11/07 05:07:21;;;;;;;23.63;4.78;;;12.30;74.80;;;;;;4925023;28;95928;-92
2021/11/07 05:09:48;;;;;;;21.85;4.03;;;12.20;75.10;;;;;;4971137;28;95065;-91
2021/11/07 05:12:15;;;;;;;21.52;4.43;;;12.10;75.30;;;;;;4940196;28;92497;-93
2021/11/07 05:14:43;;;;;;;16.23;4.22;;;12.00;75.60;;;;;;4940176;28;96327;-92
2021/11/07 05:17:10;;;;;;;17.88;3.30;;;12.00;75.70;;;;;;4956829;28;94185;-93
2021/11/07 05:19:37;;;;;;;20.27;3.88;;;12.00;76.60;;;;;;4940334;28;92782;-92
2021/11/07 05:22:05;;;;;;;17.70;3.53;;;12.00;76.00;;;;;;4956704;28;92868;-92
2021/11/07 05:24:33;;;;;;;18.17;4.32;;;12.00;75.90;;;;;;4940306;28;95494;-92
2021/11/07 05:27:01;;;;;;;21.70;4.00;;;12.00;75.80;;;;;;4940966;28;95697;-92
2021/11/07 05:29:28;;;;;;;14.95;3.92;;;12.00;75.70;;;;;;4940287;28;92488;-92
2021/11/07 05:31:56;;;;;;;18.58;4.13;;;11.90;75.90;;;;;;4939874;28;92982;-92
2021/11/07 05:34:23;;;;;;;19.40;4.18;;;11.90;75.60;;;;;;4971360;28;95988;-94
2021/11/07 05:36:51;;;;;;;18.30;3.50;;;11.90;75.70;;;;;;4923559;28;98451;-92
2021/11/07 05:39:19;;;;;;;19.85;3.95;;;11.90;75.40;;;;;;4939702;28;92768;-91
2021/11/07 05:41:46;;;;;;;15.30;3.75;;;12.00;75.30;;;;;;4938747;28;92590;-92
2021/11/07 05:44:14;;;;;;;16.85;4.25;;;12.10;75.20;;;;;;4923293;28;93515;-92
2021/11/07 05:46:43;;;;;;;19.88;4.40;;;12.10;75.10;;;;;;4957187;28;93255;-92
2021/11/07 05:49:10;;;;;;;20.35;4.93;;;12.10;75.00;;;;;;4939370;28;101064;-92
2021/11/07 05:51:37;;;;;;;15.18;3.88;;;12.10;74.90;;;;;;4972315;28;91836;-92
2021/11/07 05:54:05;;;;;;;15.32;3.28;;;12.10;74.60;;;;;;4940045;28;93292;-92
2021/11/07 05:56:33;;;;;;;24.67;4.72;;;12.10;74.60;;;;;;4955428;28;95547;-91
2021/11/07 05:59:01;;;;;;;12.60;3.10;;;12.10;74.50;;;;;;4955935;28;95179;-92
2021/11/07 06:01:28;;;;;;;13.70;3.42;;;12.10;74.30;;;;;;4956182;28;92443;-92
2021/11/07 06:03:54;;;;;;;18.00;4.00;;;12.10;74.40;;;;;;4926731;28;95778;-91
2021/11/07 06:06:22;;;;;;;17.67;4.70;;;12.10;74.40;;;;;;4947059;28;93492;-92
2021/11/07 06:08:50;;;;;;;17.80;3.88;;;12.10;73.80;;;;;;4939485;28;92541;-91
2021/11/07 06:11:17;;;;;;;17.15;3.60;;;12.20;74.60;;;;;;4923140;28;104926;-92
2021/11/07 06:13:44;;;;;;;14.20;3.63;;;12.20;73.60;;;;;;4939189;28;94822;-92
2021/11/07 06:16:11;;;;;;;14.00;3.13;;;12.10;73.20;;;;;;4955894;28;93522;-92
2021/11/07 06:18:38;;;;;;;16.27;3.20;;;12.10;73.40;;;;;;4923141;28;92527;-92
2021/11/07 06:21:05;;;;;;;13.30;2.67;;;12.10;73.60;;;;;;4955485;28;92927;-92
2021/11/07 06:23:33;;;;;;;16.05;2.97;;;12.00;73.50;;;;;;4937539;28;98048;-91
2021/11/07 06:26:01;;;;;;;15.73;3.17;;;12.00;73.60;;;;;;4938687;28;98845;-91
2021/11/07 06:28:29;;;;;;;15.32;2.88;;;12.00;73.30;;;;;;4955741;28;92523;-92
2021/11/07 06:31:01;;;;;;;14.00;3.55;;;11.90;73.80;;;;;;4954708;28;92594;-92
2021/11/07 06:33:32;;;;;;;12.75;3.95;;;11.80;74.10;;;;;;4955475;28;96167;-92
2021/11/07 06:35:59;;;;;;;17.20;2.72;;;11.80;74.00;;;;;;4922590;28;95669;-91
2021/11/07 06:38:26;;;;;;;17.45;3.15;;;11.90;74.00;;;;;;4954916;28;95168;-91
2021/11/07 06:40:54;;;;;;;14.23;3.00;;;11.90;74.00;;;;;;4955078;28;91801;-91
2021/11/07 06:43:21;;;;;;;18.25;3.35;;;11.90;74.00;;;;;;4938610;28;95723;-92
2021/11/07 06:45:48;;;;;;;12.70;3.20;;;11.90;74.00;;;;;;4954598;28;94569;-91
2021/11/07 06:48:15;;;;;;;18.10;3.42;;;11.90;74.40;;;;;;4922052;28;94831;-92
2021/11/07 06:50:42;;;;;;;12.65;2.85;;;11.90;74.40;;;;;;4954570;28;92505;-92
2021/11/07 06:53:09;;;;;;;16.25;3.67;;;12.00;74.30;;;;;;4938181;28;96061;-91
2021/11/07 06:55:37;;;;;;;12.40;2.92;;;11.90;73.80;;;;;;4954493;28;93158;-91
2021/11/07 06:58:04;;;;;;;15.32;2.30;;;11.90;73.30;;;;;;4922986;28;92445;-91
2021/11/07 07:00:31;;;;;;;16.90;3.17;;;11.90;72.50;;;;;;4950863;28;95177;-91
2021/11/07 07:02:58;;;;;;;19.55;2.95;;;11.90;72.50;;;;;;4968715;28;96023;-91
2021/11/07 07:05:25;;;;;;;13.55;2.65;;;11.90;72.50;;;;;;4955111;28;94315;-92
2021/11/07 07:07:56;;;;;;;14.10;3.33;;;11.90;73.00;;;;;;4939135;28;92471;-91
2021/11/07 07:13:00;;;;;;;12.65;3.00;;;11.80;73.50;;;;;;4934424;28;98528;-91
2021/11/07 07:15:29;;;;;;;19.52;2.75;;;11.70;73.40;;;;;;4935128;28;98325;-91
2021/11/07 07:31:25;;;;;;;12.13;3.10;;;11.50;74.40;;;;;;4925706;28;91707;-92
2021/11/07 07:34:08;;;;;;;18.10;3.92;;;11.50;74.60;;;;;;4922129;28;96128;-91
2021/11/07 07:36:36;;;;;;;16.08;4.55;;;11.60;74.60;;;;;;4923891;28;95729;-92
2021/11/07 07:39:04;;;;;;;18.13;4.20;;;11.60;74.50;;;;;;4905396;28;95213;-92
2021/11/07 07:41:32;;;;;;;13.98;3.30;;;11.70;74.40;;;;;;4939165;28;92535;-92
2021/11/07 07:44:07;;;;;;;12.93;3.17;;;11.80;74.00;;;;;;4922137;28;95928;-91
2021/11/07 07:46:43;;;;;;;18.98;3.70;;;11.90;73.80;;;;;;4908714;28;93344;-92
2021/11/07 07:49:17;;;;;;;16.48;3.53;;;11.90;73.50;;;;;;4954259;28;92438;-91
2021/11/07 07:51:45;;;;;;;14.17;3.27;;;12.00;73.00;;;;;;4940720;28;93075;-92
2021/11/07 07:54:13;;;;;;;12.15;3.00;;;12.00;72.90;;;;;;4957516;28;95711;-91
2021/11/07 07:56:41;;;;;;;13.02;3.45;;;12.10;72.50;;;;;;4957713;28;109501;-92
2021/11/07 07:59:08;;;;;;;9.43;2.80;;;12.00;71.80;;;;;;4974069;28;92556;-92
2021/11/07 08:01:35;;;;;;;12.88;3.08;;;12.10;71.80;;;;;;4941668;28;92706;-92
2021/11/07 08:04:03;;;;;;;14.25;2.80;;;12.10;71.80;;;;;;4939541;28;98097;-91
2021/11/07 08:06:30;;;;;;;15.77;3.15;;;12.10;71.80;;;;;;4941660;28;98062;-92
2021/11/07 08:08:57;;;;;;;16.40;2.50;;;12.10;71.60;;;;;;4925721;28;92623;-92
2021/11/07 08:11:24;;;;;;;16.50;3.08;;;12.10;71.40;;;;;;4940659;28;107204;-91
2021/11/07 08:13:53;;;;;;;12.85;2.38;;;12.10;71.10;;;;;;4940594;28;95823;-92
2021/11/07 08:16:26;;;;;;;10.38;2.30;;;12.00;70.50;;;;;;4908914;28;95528;-91
2021/11/07 08:18:54;;;;;;;8.60;2.30;;;12.00;69.80;;;;;;4973506;28;92523;-92
2021/11/07 08:21:21;;;;;;;8.65;2.58;;;12.00;70.10;;;;;;4974170;28;91710;-92
2021/11/07 08:23:50;;;;;;;8.65;2.70;;;12.00;69.50;;;;;;4940701;28;94688;-92
2021/11/07 08:26:17;;;;;;;10.30;2.90;;;12.10;69.20;;;;;;4941205;28;92866;-91
2021/11/07 08:28:46;;;;;;;11.38;2.38;;;12.30;70.00;;;;;;4962156;28;95070;-92
2021/11/07 08:31:32;;;;;;;9.02;2.65;;;12.30;69.00;;;;;;4921493;28;92554;-91
2021/11/07 08:34:01;;;;;;;10.15;2.15;;;12.30;68.30;;;;;;4923569;28;95426;-91
2021/11/07 08:39:16;;;;;;;7.72;2.05;;;12.30;68.20;;;;;;4922568;28;92452;-92
2021/11/07 08:41:50;;;;;;;9.57;3.20;;;12.40;68.00;;;;;;4946007;28;92448;-92
2021/11/07 09:04:06;;;;;;;13.30;2.53;;;13.50;65.50;;;;;;4941026;28;92871;-90
2021/11/07 09:09:18;;;;;;;12.55;3.10;;;13.60;64.60;;;;;;4909806;28;95318;-91
2021/11/07 09:11:50;;;;;;;9.48;2.55;;;13.60;64.50;;;;;;4920833;28;92705;-91
2021/11/07 09:14:20;;;;;;;10.63;3.55;;;13.60;63.60;;;;;;4935890;28;91857;-91
2021/11/07 09:16:49;;;;;;;11.00;2.35;;;13.50;63.80;;;;;;4921437;28;93201;-91
2021/11/07 09:19:23;;;;;;;6.97;2.05;;;13.40;64.10;;;;;;4923650;28;95855;-92
2021/11/07 09:22:00;;;;;;;;;;;13.20;64.10;;;;;;4955414;28;95243;-91
2021/11/07 09:24:42;;;;;;;6.63;1.85;;;13.20;64.60;;;;;;4957288;28;92726;-91
2021/11/07 09:27:19;;;;;;;7.57;2.05;;;13.10;64.60;;;;;;4943817;28;96073;-91
2021/11/07 09:30:10;;;;;;;11.07;2.05;;;13.20;64.20;;;;;;4957562;28;93102;-91
2021/11/07 09:32:54;;;;;;;8.18;2.47;;;13.10;64.10;;;;;;4928882;28;92697;-92
2021/11/07 09:37:55;;;;;;;9.00;2.58;;;13.00;65.10;;;;;;4955856;28;92973;-91
2021/11/07 09:40:26;;;;;;;7.68;2.40;;;13.00;65.00;;;;;;4940879;28;95092;-91
2021/11/07 09:45:30;;;;;;;9.40;2.28;;;13.00;64.90;;;;;;4957305;28;92519;-91
2021/11/07 09:48:07;;;;;;;10.32;3.75;;;13.10;64.80;;;;;;4949638;28;98116;-91
2021/11/07 09:50:34;;;;;;;10.40;2.78;;;13.10;65.20;;;;;;4961974;28;95490;-91
2021/11/07 09:53:03;;;;;;;9.05;2.20;;;13.20;65.40;;;;;;4953979;28;92655;-91
2021/11/07 09:55:31;;;;;;;14.30;2.90;;;13.20;65.60;;;;;;4962025;28;92788;-91
2021/11/07 09:57:59;;;;;;;8.75;2.78;;;13.30;66.00;;;;;;4977107;28;95817;-91
2021/11/07 10:00:42;;;;;;;13.52;2.17;;;13.30;65.70;;;;;;4945509;28;95553;-91
2021/11/07 10:03:12;;;;;;;11.50;2.92;;;13.30;65.90;;;;;;4939249;28;93031;-91
2021/11/07 10:05:41;;;;;;;8.20;2.03;;;13.40;65.90;;;;;;4981824;28;91845;-91
2021/11/07 10:08:10;;;;;;;11.88;3.00;;;13.40;66.00;;;;;;4962181;28;96522;-91
2021/11/07 10:10:47;;;;;;;12.98;3.20;;;13.50;65.80;;;;;;4956910;28;94291;-90
2021/11/07 10:13:24;;;;;;;10.88;2.75;;;13.60;66.10;;;;;;4943970;28;94827;-91
2021/11/07 10:16:02;;;;;;;10.60;2.95;;;13.80;66.20;;;;;;4942259;28;93156;-92
2021/11/07 10:21:26;;;;;;;10.52;2.58;;;14.10;65.60;;;;;;4948007;28;95760;-90
2021/11/07 10:24:03;;;;;;;16.17;3.55;;;14.40;65.20;;;;;;4938247;28;92591;-91
2021/11/07 10:26:39;;;;;;;12.40;2.30;;;14.50;64.00;;;;;;4968451;28;92481;-91
2021/11/07 10:29:09;;;;;;;17.10;3.53;;;14.50;63.50;;;;;;4955296;28;95921;-92
2021/11/07 10:31:58;;;;;;;12.48;2.40;;;14.60;63.50;;;;;;4971344;28;91719;-91
2021/11/07 10:54:25;;;;;;;13.80;3.05;;;14.20;61.40;;;;;;4949039;28;95826;-92
2021/11/07 10:57:17;;;;;;;14.77;2.88;;;14.20;61.10;;;;;;4944594;28;92744;-92
2021/11/07 11:00:24;;;;;;;15.35;2.92;;;14.20;60.90;;;;;;4978111;28;91741;-92
2021/11/07 11:03:00;;;;;;;13.00;2.97;;;14.30;61.70;;;;;;4955453;28;94775;-92
2021/11/07 11:05:40;;;;;;;12.55;3.58;;;14.30;61.20;;;;;;4939142;28;95617;-92
2021/11/07 11:08:22;;;;;;;12.82;2.47;;;14.30;61.50;;;;;;4939961;28;95080;-91
2021/11/07 11:13:38;;;;;;;12.30;2.70;;;14.30;61.00;;;;;;4951843;28;95959;-91
2021/11/07 11:22:09;;;;;;;10.60;2.72;;;14.30;61.30;;;;;;4944923;28;92825;-91
2021/11/07 11:25:16;;;;;;;17.02;3.15;;;14.20;62.10;;;;;;4965808;28;96241;-92
2021/11/07 11:33:12;;;;;;;12.82;2.78;;;14.00;62.50;;;;;;4956584;28;92410;-91
2021/11/07 11:40:49;;;;;;;11.25;3.03;;;14.10;62.40;;;;;;4986400;28;92546;-91
2021/11/07 11:43:20;;;;;;;9.25;2.83;;;14.00;61.90;;;;;;4907214;28;92522;-90
2021/11/07 11:45:56;;;;;;;10.82;2.50;;;14.00;61.10;;;;;;4916583;28;93412;-91
2021/11/07 11:54:57;;;;;;;10.98;2.58;;;14.30;60.80;;;;;;4916356;28;92213;-92
2021/11/07 12:00:31;;;;;;;12.27;2.53;;;14.70;59.80;;;;;;4911182;28;95785;-91
2021/11/07 12:08:22;;;;;;;9.60;2.60;;;15.30;57.60;;;;;;4931311;28;95436;-93
2021/11/07 12:11:04;;;;;;;9.82;2.80;;;15.50;57.50;;;;;;4912691;28;95268;-92
2021/11/07 12:13:59;;;;;;;10.93;2.88;;;15.80;56.90;;;;;;4925341;28;92573;-92
2021/11/07 12:16:43;;;;;;;9.27;2.33;;;16.00;56.50;;;;;;4899951;28;92931;-92
2021/11/07 12:19:12;;;;;;;14.00;3.38;;;16.40;56.30;;;;;;4934400;28;95595;-90
2021/11/07 12:21:49;;;;;;;14.52;2.92;;;16.50;55.60;;;;;;4935381;28;93328;-91
2021/11/07 12:24:22;;;;;;;14.57;3.03;;;16.60;54.70;;;;;;4899281;28;93878;-93
2021/11/07 12:26:50;;;;;;;12.83;3.40;;;16.60;54.70;;;;;;4919076;28;92721;-93
2021/11/07 12:29:42;;;;;;;17.30;3.05;;;16.60;55.00;;;;;;4892620;28;98723;-93
2021/11/07 12:32:13;;;;;;;11.90;2.97;;;16.70;54.50;;;;;;4918812;28;95827;-93
2021/11/07 12:34:57;;;;;;;11.52;3.50;;;16.80;55.00;;;;;;4903484;28;92611;-93
2021/11/07 12:41:04;;;;;;;13.57;2.72;;;16.90;53.80;;;;;;4916971;28;92899;-91
2021/11/07 12:43:36;;;;;;;11.73;3.17;;;16.90;53.50;;;;;;4938804;28;95842;-91
2021/11/07 12:46:30;;;;;;;15.27;3.20;;;16.80;53.80;;;;;;4939840;28;92542;-92
2021/11/07 12:49:15;;;;;;;16.55;3.28;;;16.70;54.10;;;;;;4954649;28;91717;-91
2021/11/07 12:51:48;;;;;;;12.00;3.45;;;16.60;53.20;;;;;;4938499;28;93591;-94
2021/11/07 12:54:17;;;;;;;17.00;3.97;;;16.50;52.80;;;;;;4944682;28;95251;-90
2021/11/07 12:56:46;;;;;;;14.63;3.35;;;16.10;52.00;;;;;;4961267;28;94976;-90
2021/11/07 12:59:30;;;;;;;8.50;2.30;;;16.00;52.00;;;;;;4944605;28;92454;-91
2021/11/07 13:02:02;;;;;;;8.30;2.03;;;15.60;50.20;;;;;;4952749;28;95124;-91
2021/11/07 13:04:32;;;;;;;8.20;2.40;;;15.50;52.50;;;;;;4964482;28;95845;-91
2021/11/07 13:07:01;;;;;;;8.13;2.33;;;15.40;53.40;;;;;;4974206;28;92496;-90
2021/11/07 13:09:36;;;;;;;7.30;1.88;;;15.30;53.80;;;;;;4986863;28;92929;-91
2021/11/07 13:12:12;;;;;;;5.82;2.28;;;15.30;54.20;;;;;;4955039;28;93681;-90
2021/11/07 13:14:58;;;;;;;9.38;2.00;;;15.10;54.70;;;;;;4939542;28;95779;-91
2021/11/07 13:28:36;;;;;;;11.88;2.85;;;14.40;57.30;;;;;;4958684;28;92576;-90
2021/11/07 13:31:23;;;;;;;10.77;2.58;;;14.40;57.70;;;;;;4951107;28;92411;-91
2021/11/07 13:33:50;;;;;;;14.68;2.83;;;14.40;57.70;;;;;;4970302;28;96346;-91
2021/11/07 13:36:19;;;;;;;14.43;3.33;;;14.30;57.40;;;;;;4971515;28;95676;-91
2021/11/07 13:38:50;;;;;;;17.67;4.30;;;14.30;58.10;;;;;;4940539;28;97143;-91
2021/11/07 13:41:22;;;;;;;18.77;3.38;;;14.30;58.40;;;;;;4974714;28;91783;-91
2021/11/07 13:44:02;;;;;;;21.77;3.72;;;14.40;58.60;;;;;;4958900;28;95615;-91
2021/11/07 13:46:31;;;;;;;15.18;3.30;;;14.60;58.50;;;;;;4974552;28;95938;-91
2021/11/07 13:49:03;;;;;;;16.52;3.92;;;14.60;58.30;;;;;;4957289;28;95072;-91
2021/11/07 13:51:48;;;;;;;15.88;4.03;;;14.80;58.50;;;;;;4991025;28;92404;-91
2021/11/07 13:54:15;;;;;;;15.50;4.05;;;14.80;58.70;;;;;;4956018;28;94599;-91
2021/11/07 13:56:47;;;;;;;18.90;3.67;;;14.80;58.80;;;;;;4963247;28;96807;-91
2021/11/07 13:59:34;;;;;;;16.00;3.80;;;14.80;59.00;;;;;;4942316;28;93158;-91
2021/11/07 14:02:10;;;;;;;15.57;3.25;;;14.60;59.30;;;;;;4958418;28;92454;-91
2021/11/07 14:04:46;;;;;;;13.73;2.83;;;14.60;59.50;;;;;;4941494;28;96158;-90
2021/11/07 14:07:14;;;;;;;14.02;3.08;;;14.30;59.40;;;;;;4958948;28;93017;-91
2021/11/07 14:10:17;;;;;;;10.57;2.47;;;14.20;59.70;;;;;;4941651;28;93328;-90
2021/11/07 14:12:47;;;;;;;7.97;2.60;;;14.20;60.40;;;;;;4927423;28;92705;-90
2021/11/07 14:15:24;;;;;;;16.17;3.72;;;13.90;60.80;;;;;;4956591;28;98354;-91
2021/11/07 14:18:07;;;;;;;12.10;2.83;;;13.90;61.90;;;;;;4959822;28;94429;-91
2021/11/07 14:20:37;;;;;;;15.02;3.40;;;13.80;61.60;;;;;;4958474;28;92565;-92
2021/11/07 14:23:20;;;;;;;11.32;2.97;;;13.70;62.00;;;;;;4957750;28;92403;-91
2021/11/07 14:26:01;;;;;;;13.43;3.10;;;13.70;62.10;;;;;;4957724;28;96183;-92
2021/11/07 14:28:35;;;;;;;11.23;2.72;;;13.70;62.00;;;;;;4958272;28;93077;-91
2021/11/07 14:31:14;;;;;;;11.40;3.17;;;13.70;60.90;;;;;;4941083;28;92623;-91
2021/11/07 14:33:58;;;;;;;8.75;2.60;;;13.70;61.10;;;;;;4974893;28;91665;-91
2021/11/07 14:41:56;;;;;;;12.43;2.20;;;13.70;60.90;;;;;;4934027;28;95327;-91
2021/11/07 14:44:37;;;;;;;9.05;3.10;;;13.70;61.40;;;;;;4957841;28;92431;-91
2021/11/07 14:47:12;;;;;;;11.45;2.13;;;13.70;61.30;;;;;;4957731;28;96017;-92
2021/11/07 14:50:06;;;;;;;9.68;2.65;;;13.60;61.50;;;;;;4957869;28;95704;-92
2021/11/07 14:55:14;;;;;;;10.40;2.53;;;13.40;62.50;;;;;;4956806;28;92193;-92
2021/11/07 14:58:08;;;;;;;12.38;3.03;;;13.30;62.70;;;;;;4936974;28;95721;-92
2021/11/07 15:00:57;;;;;;;13.02;3.08;;;13.30;62.50;;;;;;4925826;28;95908;-92
2021/11/07 15:03:31;;;;;;;11.82;2.95;;;13.30;62.70;;;;;;4924626;28;92422;-93
2021/11/07 15:06:55;;;;;;;15.02;3.20;;;13.20;63.00;;;;;;4957144;28;92444;-92
2021/11/07 15:09:09;;;;;;;12.23;3.00;;;13.20;63.40;;;;;;4954709;28;98018;-91
2021/11/07 15:12:01;;;;;;;16.60;3.83;;;13.20;64.40;;;;;;4940923;28;97688;-92
2021/11/07 15:15:15;;;;;;;16.90;4.20;;;13.30;64.10;;;;;;4941443;28;92391;-92
2021/11/07 15:18:09;;;;;;;13.27;3.78;;;13.20;64.20;;;;;;4942421;28;92339;-92
2021/11/07 15:20:38;;;;;;;17.45;3.15;;;13.30;64.80;;;;;;4953058;28;95851;-92
2021/11/07 15:23:07;;;;;;;17.05;3.35;;;13.20;65.90;;;;;;4956408;28;95448;-91
2021/11/07 15:25:37;;;;;;;17.45;3.50;;;13.10;66.20;;;;;;4923695;28;96984;-91
2021/11/07 15:28:12;;;;;;;18.45;3.03;;;13.10;65.90;;;;;;4944845;28;191892;-92
2021/11/07 15:30:42;;;;;;;17.27;3.47;;;13.10;65.90;;;;;;4970201;28;93313;-92
2021/11/07 15:33:13;;;;;;;12.48;3.33;;;13.10;66.10;;;;;;4964677;28;112388;-91
2021/11/07 15:35:52;;;;;;;15.10;2.95;;;13.00;66.20;;;;;;4939263;28;94825;-96
2021/11/07 15:38:25;;;;;;;14.63;3.28;;;13.00;66.40;;;;;;4956280;28;92393;-95
2021/11/07 15:40:55;;;;;;;13.63;2.67;;;13.00;66.60;;;;;;4953689;28;94876;-94
2021/11/07 15:43:49;;;;;;;17.80;3.95;;;13.00;66.90;;;;;;4991847;28;95677;-96
2021/11/07 15:46:17;;;;;;;12.88;3.00;;;12.90;67.30;;;;;;4959972;28;92264;-92